Time;durP1;ratioP1;P1;durP2;ratioP2;P2;SDS_P1;SDS_P2;PMS_P1;PMS_P2;Temp;Humidity;BMP_temperature;BMP_pressure;BME280_temperature;BME280_humidity;BME280_pressure;Samples;Min_cycle;Max_cycle;Signal;HPM_P1;HPM_P2
2023/05/15 00:00:40;;;;;;;51.05;35.28;;;;;;;;;;5037315;28;20259;-69
2023/05/15 00:03:06;;;;;;;50.95;34.67;;;;;;;;;;5037600;28;20229;-69
2023/05/15 00:05:31;;;;;;;55.45;34.85;;;;;;;;;;5043689;28;20213;-68
2023/05/15 00:07:57;;;;;;;53.30;35.35;;;;;;;;;;5028879;28;20186;-68
2023/05/15 00:10:22;;;;;;;51.45;34.58;;;;;;;;;;5029860;28;20485;-68
2023/05/15 00:12:47;;;;;;;51.90;34.33;;;;;;;;;;5028516;28;20289;-68
2023/05/15 00:15:13;;;;;;;53.50;34.97;;;;;;;;;;5027768;28;20537;-68
2023/05/15 00:17:39;;;;;;;52.75;35.88;;;;;;;;;;5031363;28;20218;-69
2023/05/15 00:20:06;;;;;;;52.47;34.88;;;;;;;;;;5031276;28;20208;-68
2023/05/15 00:22:31;;;;;;;57.40;36.13;;;;;;;;;;5038271;28;20185;-68
2023/05/15 00:24:58;;;;;;;57.70;36.22;;;;;;;;;;5046807;28;20189;-69
2023/05/15 00:27:23;;;;;;;57.88;34.72;;;;;;;;;;5028116;28;20542;-68
2023/05/15 00:29:49;;;;;;;63.22;37.08;;;;;;;;;;5039142;28;20192;-68
2023/05/15 00:32:14;;;;;;;54.17;36.47;;;;;;;;;;5021408;28;20195;-68
2023/05/15 00:34:40;;;;;;;57.70;36.75;;;;;;;;;;5011447;28;20232;-69
2023/05/15 00:37:05;;;;;;;51.97;35.00;;;;;;;;;;5020854;28;20219;-68
2023/05/15 00:39:30;;;;;;;54.20;37.10;;;;;;;;;;5023916;28;20198;-68
2023/05/15 00:41:57;;;;;;;52.50;34.65;;;;;;;;;;5012291;28;20202;-68
2023/05/15 00:44:24;;;;;;;59.08;37.65;;;;;;;;;;5026295;28;20565;-68
2023/05/15 00:46:52;;;;;;;56.60;36.15;;;;;;;;;;5026744;28;20268;-68
2023/05/15 00:49:19;;;;;;;54.90;36.75;;;;;;;;;;5018172;28;20712;-68
2023/05/15 00:51:44;;;;;;;60.38;36.67;;;;;;;;;;5019717;28;20182;-68
2023/05/15 00:54:10;;;;;;;55.97;35.95;;;;;;;;;;5022224;28;20590;-68
2023/05/15 00:56:36;;;;;;;53.53;35.75;;;;;;;;;;5022240;28;20196;-68
2023/05/15 00:59:03;;;;;;;54.30;35.60;;;;;;;;;;5026636;28;20206;-68
2023/05/15 01:01:32;;;;;;;53.28;35.13;;;;;;;;;;5026539;28;20673;-68
2023/05/15 01:03:59;;;;;;;53.58;34.70;;;;;;;;;;5027486;28;20190;-68
2023/05/15 01:06:24;;;;;;;52.10;35.20;;;;;;;;;;5046902;28;20208;-68
2023/05/15 01:08:52;;;;;;;54.50;34.28;;;;;;;;;;5028847;28;20187;-68
2023/05/15 01:11:17;;;;;;;53.83;34.70;;;;;;;;;;5021117;28;20673;-68
2023/05/15 01:13:43;;;;;;;55.17;35.08;;;;;;;;;;5038902;28;20198;-68
2023/05/15 01:16:09;;;;;;;56.92;35.78;;;;;;;;;;5025999;28;20526;-68
2023/05/15 01:18:35;;;;;;;55.10;35.75;;;;;;;;;;5025570;28;20202;-69
2023/05/15 01:21:00;;;;;;;54.15;35.47;;;;;;;;;;5032974;28;20182;-68
2023/05/15 01:23:43;;;;;;;55.90;35.75;;;;;;;;;;5045795;28;20189;-68
2023/05/15 01:26:20;;;;;;;53.83;34.45;;;;;;;;;;5020557;28;20193;-69
2023/05/15 01:28:55;;;;;;;51.17;34.28;;;;;;;;;;5029747;28;20194;-69
2023/05/15 01:31:23;;;;;;;59.53;34.90;;;;;;;;;;5028555;28;20280;-68
2023/05/15 01:33:54;;;;;;;54.00;34.45;;;;;;;;;;5025096;28;20189;-69
2023/05/15 01:36:47;;;;;;;54.28;35.17;;;;;;;;;;5011179;28;20187;-68
2023/05/15 01:39:17;;;;;;;51.78;33.95;;;;;;;;;;5026361;28;20245;-69
2023/05/15 01:42:07;;;;;;;51.55;34.03;;;;;;;;;;5028236;28;20238;-68
2023/05/15 01:44:35;;;;;;;52.33;34.30;;;;;;;;;;5029994;28;20217;-69
2023/05/15 01:47:05;;;;;;;58.10;34.05;;;;;;;;;;5040227;28;20548;-68
2023/05/15 01:49:32;;;;;;;52.97;34.50;;;;;;;;;;5034108;28;20709;-68
2023/05/15 01:52:47;;;;;;;56.08;34.92;;;;;;;;;;5029774;28;20202;-68
2023/05/15 01:55:14;;;;;;;52.78;35.28;;;;;;;;;;5019693;28;20586;-68
2023/05/15 01:57:41;;;;;;;53.53;34.35;;;;;;;;;;5023333;28;20654;-69
2023/05/15 02:00:07;;;;;;;54.70;33.42;;;;;;;;;;5022518;28;20676;-68
2023/05/15 02:02:33;;;;;;;55.10;34.78;;;;;;;;;;5029200;28;20194;-69
2023/05/15 02:04:58;;;;;;;55.80;35.10;;;;;;;;;;5025365;28;20192;-68
2023/05/15 02:07:25;;;;;;;53.10;34.13;;;;;;;;;;5010918;28;20191;-68
2023/05/15 02:09:51;;;;;;;51.60;32.50;;;;;;;;;;5045845;28;20201;-69
2023/05/15 02:12:18;;;;;;;57.65;36.33;;;;;;;;;;5041222;28;20682;-68
2023/05/15 02:14:45;;;;;;;57.08;36.63;;;;;;;;;;5029463;28;20200;-68
2023/05/15 02:17:10;;;;;;;56.55;35.08;;;;;;;;;;5029063;28;20434;-69
2023/05/15 02:19:36;;;;;;;61.17;35.17;;;;;;;;;;5033342;28;20638;-69
2023/05/15 02:22:01;;;;;;;63.78;38.05;;;;;;;;;;5042615;28;20478;-69
2023/05/15 02:24:26;;;;;;;60.72;35.97;;;;;;;;;;5027243;28;20200;-68
2023/05/15 02:27:07;;;;;;;61.20;37.72;;;;;;;;;;5014745;28;20582;-68
2023/05/15 02:30:02;;;;;;;60.95;37.05;;;;;;;;;;5026949;28;20202;-68
2023/05/15 02:32:36;;;;;;;60.00;35.97;;;;;;;;;;5028501;28;20194;-68
2023/05/15 02:35:19;;;;;;;65.28;38.50;;;;;;;;;;5026661;28;20205;-68
2023/05/15 02:37:49;;;;;;;69.57;39.25;;;;;;;;;;5008985;28;20234;-69
2023/05/15 02:40:15;;;;;;;71.47;37.90;;;;;;;;;;5021181;28;20198;-68
2023/05/15 02:42:42;;;;;;;71.30;39.63;;;;;;;;;;5031744;28;20196;-68
2023/05/15 02:45:09;;;;;;;101.20;39.55;;;;;;;;;;5033110;28;20276;-68
2023/05/15 02:47:35;;;;;;;81.05;38.70;;;;;;;;;;5025861;28;20185;-68
2023/05/15 02:50:03;;;;;;;78.25;38.90;;;;;;;;;;5029728;28;20190;-68
2023/05/15 02:52:28;;;;;;;86.63;40.22;;;;;;;;;;5019091;28;20197;-68
2023/05/15 02:54:53;;;;;;;75.03;39.92;;;;;;;;;;5016414;28;20273;-68
2023/05/15 02:57:19;;;;;;;73.45;39.92;;;;;;;;;;5019246;28;20249;-68
2023/05/15 02:59:44;;;;;;;73.28;40.55;;;;;;;;;;5019340;28;20614;-68
2023/05/15 03:02:09;;;;;;;81.85;40.28;;;;;;;;;;5020192;28;20249;-68
2023/05/15 03:04:35;;;;;;;79.10;39.90;;;;;;;;;;5033272;28;20229;-68
2023/05/15 03:07:00;;;;;;;117.78;39.95;;;;;;;;;;5016991;28;20183;-68
2023/05/15 03:09:26;;;;;;;107.22;40.45;;;;;;;;;;5031541;28;20182;-68
2023/05/15 03:11:51;;;;;;;91.55;39.53;;;;;;;;;;5032284;28;20228;-68
2023/05/15 03:14:16;;;;;;;111.35;41.67;;;;;;;;;;5039030;28;20182;-68
2023/05/15 03:16:42;;;;;;;143.50;40.95;;;;;;;;;;5028157;28;20251;-68
2023/05/15 03:19:08;;;;;;;121.25;42.53;;;;;;;;;;5031271;28;20252;-69
2023/05/15 03:21:33;;;;;;;77.13;40.75;;;;;;;;;;5042084;28;20217;-67
2023/05/15 03:23:59;;;;;;;91.13;40.85;;;;;;;;;;5045992;28;20251;-68
2023/05/15 03:26:25;;;;;;;97.50;42.13;;;;;;;;;;5028866;28;20193;-69
2023/05/15 03:28:51;;;;;;;111.18;41.33;;;;;;;;;;5013196;28;20209;-69
2023/05/15 03:31:16;;;;;;;69.85;40.42;;;;;;;;;;5037022;28;20788;-71
2023/05/15 03:33:44;;;;;;;141.45;39.75;;;;;;;;;;5032089;28;20663;-68
2023/05/15 03:36:09;;;;;;;91.47;37.75;;;;;;;;;;5030102;28;20178;-68
2023/05/15 03:38:35;;;;;;;77.70;40.15;;;;;;;;;;5022717;28;20240;-68
2023/05/15 03:41:00;;;;;;;121.90;39.38;;;;;;;;;;5026925;28;20186;-68
2023/05/15 03:43:25;;;;;;;107.68;39.13;;;;;;;;;;5039646;28;20204;-68
2023/05/15 03:45:51;;;;;;;82.25;41.05;;;;;;;;;;5021453;28;20201;-69
2023/05/15 03:48:16;;;;;;;82.47;39.75;;;;;;;;;;5016131;28;20727;-67
2023/05/15 03:50:44;;;;;;;85.65;39.42;;;;;;;;;;5023686;28;20205;-68
2023/05/15 03:53:09;;;;;;;72.78;40.60;;;;;;;;;;5027645;28;20174;-68
2023/05/15 03:55:35;;;;;;;81.68;38.92;;;;;;;;;;5023406;28;20248;-68
2023/05/15 03:58:01;;;;;;;110.10;40.28;;;;;;;;;;5012887;28;20229;-68
2023/05/15 04:00:26;;;;;;;119.57;40.45;;;;;;;;;;5022452;28;20321;-68
2023/05/15 04:02:51;;;;;;;94.53;39.08;;;;;;;;;;5026143;28;20182;-68
2023/05/15 04:05:18;;;;;;;81.93;39.05;;;;;;;;;;5015154;28;20650;-68
2023/05/15 04:07:43;;;;;;;102.00;40.40;;;;;;;;;;5024483;28;20721;-69
2023/05/15 04:10:09;;;;;;;101.82;39.38;;;;;;;;;;5032693;28;20277;-68
2023/05/15 04:12:35;;;;;;;98.22;38.83;;;;;;;;;;5042981;28;20185;-69
2023/05/15 04:15:15;;;;;;;81.20;38.97;;;;;;;;;;5043232;28;20268;-68
2023/05/15 04:17:42;;;;;;;66.85;38.45;;;;;;;;;;5031102;28;20243;-68
2023/05/15 04:20:08;;;;;;;70.43;37.35;;;;;;;;;;5017455;28;20522;-68
2023/05/15 04:22:34;;;;;;;71.53;39.55;;;;;;;;;;5035022;28;20189;-68
2023/05/15 04:24:59;;;;;;;83.70;38.97;;;;;;;;;;5031659;28;20182;-68
2023/05/15 04:27:25;;;;;;;82.68;38.05;;;;;;;;;;5032160;28;20200;-68
2023/05/15 04:29:51;;;;;;;85.28;36.67;;;;;;;;;;5044971;28;20181;-68
2023/05/15 04:32:16;;;;;;;72.72;35.58;;;;;;;;;;5026172;28;20213;-68
2023/05/15 04:34:41;;;;;;;72.35;37.50;;;;;;;;;;5023591;28;20292;-67
2023/05/15 04:37:07;;;;;;;81.13;36.78;;;;;;;;;;5026630;28;20193;-68
2023/05/15 04:39:32;;;;;;;62.70;36.50;;;;;;;;;;5014168;28;20226;-68
2023/05/15 04:41:57;;;;;;;73.63;37.47;;;;;;;;;;5026403;28;20190;-68
2023/05/15 04:44:23;;;;;;;66.38;35.53;;;;;;;;;;5012032;28;20604;-68
2023/05/15 04:46:48;;;;;;;64.18;35.70;;;;;;;;;;5019018;28;20197;-68
2023/05/15 04:49:13;;;;;;;63.85;35.10;;;;;;;;;;5026490;28;20224;-67
2023/05/15 04:51:40;;;;;;;66.53;35.65;;;;;;;;;;5018452;28;20253;-67
2023/05/15 04:54:06;;;;;;;65.28;36.92;;;;;;;;;;5016848;28;20191;-67
2023/05/15 04:56:31;;;;;;;61.42;36.80;;;;;;;;;;5022701;28;20190;-67
2023/05/15 04:58:57;;;;;;;67.50;35.47;;;;;;;;;;5008637;28;20282;-67
2023/05/15 05:01:22;;;;;;;62.00;37.35;;;;;;;;;;5028341;28;20661;-68
2023/05/15 05:03:48;;;;;;;61.25;35.10;;;;;;;;;;5024388;28;20668;-68
2023/05/15 05:06:13;;;;;;;65.63;38.72;;;;;;;;;;5019258;28;20213;-68
2023/05/15 05:08:38;;;;;;;63.40;37.55;;;;;;;;;;5014454;28;20183;-67
2023/05/15 05:11:04;;;;;;;61.53;37.10;;;;;;;;;;5030294;28;20637;-67
2023/05/15 05:13:29;;;;;;;64.25;37.90;;;;;;;;;;5026225;28;20207;-67
2023/05/15 05:15:54;;;;;;;63.08;37.63;;;;;;;;;;5025664;28;20225;-67
2023/05/15 05:18:20;;;;;;;78.88;37.83;;;;;;;;;;5031253;28;20215;-68
2023/05/15 05:20:45;;;;;;;65.28;38.85;;;;;;;;;;5022770;28;20245;-67
2023/05/15 05:23:13;;;;;;;63.00;37.50;;;;;;;;;;5019829;28;20230;-69
2023/05/15 05:25:38;;;;;;;63.05;35.85;;;;;;;;;;5020153;28;20876;-67
2023/05/15 05:28:04;;;;;;;59.53;35.38;;;;;;;;;;5022923;28;20190;-67
2023/05/15 05:30:29;;;;;;;58.90;37.78;;;;;;;;;;5020854;28;20182;-67
2023/05/15 05:32:55;;;;;;;57.38;36.13;;;;;;;;;;5025229;28;20191;-67
2023/05/15 05:35:20;;;;;;;66.32;35.95;;;;;;;;;;5022104;28;20194;-67
2023/05/15 05:37:45;;;;;;;55.67;35.13;;;;;;;;;;5027751;28;20466;-68
2023/05/15 05:40:11;;;;;;;68.72;36.78;;;;;;;;;;5018646;28;20179;-68
2023/05/15 05:42:36;;;;;;;62.58;36.63;;;;;;;;;;5031187;28;20636;-67
2023/05/15 05:45:02;;;;;;;63.60;38.35;;;;;;;;;;5021011;28;20736;-69
2023/05/15 05:47:27;;;;;;;63.05;37.67;;;;;;;;;;5021898;28;20214;-68
2023/05/15 05:49:53;;;;;;;61.45;37.40;;;;;;;;;;5022988;28;20572;-68
2023/05/15 05:52:19;;;;;;;64.10;37.33;;;;;;;;;;5015155;28;20226;-67
2023/05/15 05:54:46;;;;;;;63.00;36.72;;;;;;;;;;5023952;28;20185;-67
2023/05/15 05:57:13;;;;;;;62.13;36.55;;;;;;;;;;5031588;28;20190;-67
2023/05/15 05:59:38;;;;;;;56.25;34.83;;;;;;;;;;5026293;28;20214;-67
2023/05/15 06:02:04;;;;;;;57.13;34.35;;;;;;;;;;5026939;28;20217;-68
2023/05/15 06:04:32;;;;;;;57.60;33.10;;;;;;;;;;5034834;28;20212;-68
2023/05/15 06:06:57;;;;;;;51.47;31.52;;;;;;;;;;5021259;28;20249;-68
2023/05/15 06:09:23;;;;;;;53.03;32.80;;;;;;;;;;5023083;28;20182;-68
2023/05/15 06:11:48;;;;;;;55.88;33.72;;;;;;;;;;5023799;28;20197;-68
2023/05/15 06:14:14;;;;;;;57.83;34.33;;;;;;;;;;5027416;28;20197;-68
2023/05/15 06:16:39;;;;;;;54.58;33.95;;;;;;;;;;5017081;28;20248;-69
2023/05/15 06:19:05;;;;;;;59.25;34.50;;;;;;;;;;5023729;28;20309;-68
2023/05/15 06:21:30;;;;;;;57.88;35.70;;;;;;;;;;5020025;28;20297;-67
2023/05/15 06:23:56;;;;;;;60.80;36.15;;;;;;;;;;5031927;28;20561;-67
2023/05/15 06:26:21;;;;;;;52.53;32.85;;;;;;;;;;5037430;28;20212;-68
2023/05/15 06:28:47;;;;;;;50.75;32.53;;;;;;;;;;5027938;28;20202;-68
2023/05/15 06:31:12;;;;;;;50.15;31.20;;;;;;;;;;5024846;28;20198;-69
2023/05/15 06:33:37;;;;;;;46.20;30.35;;;;;;;;;;5020463;28;20182;-68
2023/05/15 06:36:03;;;;;;;46.03;29.23;;;;;;;;;;5034277;28;20223;-68
2023/05/15 06:38:28;;;;;;;44.85;29.63;;;;;;;;;;5014321;28;20313;-67
2023/05/15 06:40:53;;;;;;;46.40;30.90;;;;;;;;;;5022435;28;20529;-69
2023/05/15 06:43:19;;;;;;;41.22;28.30;;;;;;;;;;5030814;28;20195;-68
2023/05/15 06:45:44;;;;;;;43.65;29.70;;;;;;;;;;5027706;28;20335;-67
2023/05/15 06:48:10;;;;;;;45.00;28.52;;;;;;;;;;5021973;28;20186;-68
2023/05/15 06:50:35;;;;;;;41.13;27.52;;;;;;;;;;5012134;28;20202;-68
2023/05/15 06:53:00;;;;;;;44.25;28.73;;;;;;;;;;5029563;28;20177;-68
2023/05/15 06:55:26;;;;;;;39.35;26.50;;;;;;;;;;5026646;28;20684;-68
2023/05/15 06:57:51;;;;;;;38.53;26.17;;;;;;;;;;5031049;28;20232;-68
2023/05/15 07:00:17;;;;;;;37.50;25.10;;;;;;;;;;5019759;28;20702;-68
2023/05/15 07:02:42;;;;;;;34.97;24.92;;;;;;;;;;5014639;28;20273;-68
2023/05/15 07:05:09;;;;;;;37.33;25.40;;;;;;;;;;5033116;28;20506;-67
2023/05/15 07:07:34;;;;;;;32.13;24.38;;;;;;;;;;5017309;28;20190;-68
2023/05/15 07:10:00;;;;;;;39.05;25.60;;;;;;;;;;5036815;28;20207;-68
2023/05/15 07:12:25;;;;;;;34.33;24.25;;;;;;;;;;5026766;28;20195;-68
2023/05/15 07:14:50;;;;;;;32.03;22.88;;;;;;;;;;5027826;28;20713;-67
2023/05/15 07:17:16;;;;;;;30.63;21.38;;;;;;;;;;5017415;28;20272;-68
2023/05/15 07:19:41;;;;;;;29.50;21.83;;;;;;;;;;5021113;28;20218;-68
2023/05/15 07:22:07;;;;;;;30.38;22.98;;;;;;;;;;5029113;28;20205;-67
2023/05/15 07:24:32;;;;;;;28.30;20.42;;;;;;;;;;5018845;28;20268;-70
2023/05/15 07:26:58;;;;;;;26.67;20.60;;;;;;;;;;5016622;28;20194;-68
2023/05/15 07:29:23;;;;;;;29.02;21.65;;;;;;;;;;5036276;28;20195;-68
2023/05/15 07:31:48;;;;;;;28.00;21.10;;;;;;;;;;5026788;28;20182;-67
2023/05/15 07:34:14;;;;;;;28.67;21.15;;;;;;;;;;5020552;28;20545;-68
2023/05/15 07:36:39;;;;;;;30.58;22.05;;;;;;;;;;5023645;28;20186;-68
2023/05/15 07:39:05;;;;;;;27.75;20.50;;;;;;;;;;5022206;28;20571;-68
2023/05/15 07:41:32;;;;;;;27.70;21.27;;;;;;;;;;5012079;28;20198;-68
2023/05/15 07:43:57;;;;;;;31.08;21.50;;;;;;;;;;5011250;28;20193;-68
2023/05/15 07:46:22;;;;;;;25.27;20.15;;;;;;;;;;5008716;28;20659;-67
2023/05/15 07:48:48;;;;;;;27.10;20.92;;;;;;;;;;5020923;28;20186;-68
2023/05/15 07:51:13;;;;;;;24.58;19.15;;;;;;;;;;5028692;28;20474;-66
2023/05/15 07:53:39;;;;;;;29.27;20.80;;;;;;;;;;5017887;28;20205;-68
2023/05/15 07:56:04;;;;;;;27.05;19.75;;;;;;;;;;5028269;28;20190;-69
2023/05/15 07:58:29;;;;;;;27.23;20.80;;;;;;;;;;5026110;28;20681;-68
2023/05/15 08:00:55;;;;;;;26.17;19.77;;;;;;;;;;5012948;28;20665;-68
2023/05/15 08:03:20;;;;;;;24.33;19.15;;;;;;;;;;5020340;28;20368;-68
2023/05/15 08:05:46;;;;;;;25.27;18.55;;;;;;;;;;5013996;28;20186;-69
2023/05/15 08:08:11;;;;;;;32.78;18.38;;;;;;;;;;5025037;28;20649;-68
2023/05/15 08:10:36;;;;;;;24.92;18.63;;;;;;;;;;5020231;28;20230;-68
2023/05/15 08:13:02;;;;;;;24.52;18.95;;;;;;;;;;5036956;28;20238;-68
2023/05/15 08:15:28;;;;;;;23.10;19.27;;;;;;;;;;5026501;28;20198;-68
2023/05/15 08:17:53;;;;;;;27.30;18.13;;;;;;;;;;5026176;28;20201;-68
2023/05/15 08:20:18;;;;;;;24.38;17.80;;;;;;;;;;5025483;28;20692;-68
2023/05/15 08:22:44;;;;;;;20.98;17.00;;;;;;;;;;5027390;28;20269;-68
2023/05/15 08:25:09;;;;;;;22.73;16.10;;;;;;;;;;5016600;28;20199;-68
2023/05/15 08:27:35;;;;;;;19.48;15.43;;;;;;;;;;5025951;28;20209;-67
2023/05/15 08:30:00;;;;;;;21.17;15.73;;;;;;;;;;5026961;28;20211;-68
2023/05/15 08:32:26;;;;;;;21.38;15.75;;;;;;;;;;5021155;28;20194;-70
2023/05/15 08:34:51;;;;;;;21.08;15.88;;;;;;;;;;5019241;28;20622;-68
2023/05/15 08:37:17;;;;;;;20.70;15.95;;;;;;;;;;5032610;28;20244;-68
2023/05/15 08:39:42;;;;;;;22.33;16.17;;;;;;;;;;5026598;28;20221;-68
2023/05/15 08:42:20;;;;;;;23.40;16.90;;;;;;;;;;5021628;28;20749;-68
2023/05/15 08:44:46;;;;;;;16.38;13.65;;;;;;;;;;5024982;28;20289;-67
2023/05/15 08:47:14;;;;;;;18.83;15.45;;;;;;;;;;5015951;28;20199;-67
2023/05/15 08:50:06;;;;;;;21.05;15.45;;;;;;;;;;5028759;28;20186;-67
2023/05/15 08:52:32;;;;;;;16.50;12.95;;;;;;;;;;5020460;28;20604;-67
2023/05/15 08:54:58;;;;;;;16.95;13.50;;;;;;;;;;5027055;28;20182;-67
2023/05/15 08:57:25;;;;;;;20.23;14.88;;;;;;;;;;5031793;28;20202;-67
2023/05/15 08:59:52;;;;;;;20.17;14.10;;;;;;;;;;5013618;28;20226;-67
2023/05/15 09:02:18;;;;;;;20.23;12.93;;;;;;;;;;5016787;28;20637;-67
2023/05/15 09:04:44;;;;;;;17.30;12.27;;;;;;;;;;5013938;28;20182;-66
2023/05/15 09:07:10;;;;;;;18.45;13.02;;;;;;;;;;5020499;28;20217;-68
2023/05/15 09:09:36;;;;;;;16.63;11.85;;;;;;;;;;5040108;28;20319;-66
2023/05/15 09:12:03;;;;;;;15.80;12.40;;;;;;;;;;5030966;28;20543;-67
2023/05/15 09:14:28;;;;;;;15.85;12.82;;;;;;;;;;5031367;28;20195;-66
2023/05/15 09:16:54;;;;;;;17.58;12.48;;;;;;;;;;5024035;28;20585;-67
2023/05/15 09:19:21;;;;;;;17.50;12.27;;;;;;;;;;5033840;28;20447;-68
2023/05/15 09:21:46;;;;;;;16.23;12.18;;;;;;;;;;5034434;28;20249;-68
2023/05/15 09:24:18;;;;;;;16.20;11.80;;;;;;;;;;5027517;28;20291;-68
2023/05/15 09:26:44;;;;;;;16.75;11.85;;;;;;;;;;5018145;28;20191;-70
2023/05/15 09:29:10;;;;;;;15.07;11.77;;;;;;;;;;5023508;28;20190;-69
2023/05/15 09:31:36;;;;;;;15.65;12.25;;;;;;;;;;5009593;28;20573;-68
2023/05/15 09:34:03;;;;;;;17.35;13.20;;;;;;;;;;5022918;28;20190;-69
2023/05/15 09:36:29;;;;;;;18.75;13.15;;;;;;;;;;5027737;28;20685;-69
2023/05/15 09:38:59;;;;;;;16.75;13.32;;;;;;;;;;5025790;28;20270;-68
2023/05/15 09:41:25;;;;;;;18.15;15.70;;;;;;;;;;5017921;28;20194;-69
2023/05/15 09:43:51;;;;;;;19.05;13.88;;;;;;;;;;5019029;28;20673;-68
2023/05/15 09:46:16;;;;;;;18.20;14.05;;;;;;;;;;5013821;28;20187;-68
2023/05/15 09:48:42;;;;;;;19.25;13.82;;;;;;;;;;5016877;28;20187;-69
2023/05/15 09:51:15;;;;;;;15.13;12.35;;;;;;;;;;5021039;28;20193;-67
2023/05/15 09:53:41;;;;;;;16.25;13.07;;;;;;;;;;5033919;28;20228;-68
2023/05/15 09:56:09;;;;;;;16.33;13.20;;;;;;;;;;5029797;28;20190;-68
2023/05/15 09:58:35;;;;;;;19.20;13.77;;;;;;;;;;5030507;28;20298;-69
2023/05/15 10:01:01;;;;;;;15.82;12.82;;;;;;;;;;5029078;28;20264;-69
2023/05/15 10:03:27;;;;;;;17.25;11.10;;;;;;;;;;5030871;28;20198;-68
2023/05/15 10:06:03;;;;;;;16.48;12.55;;;;;;;;;;5029711;28;20200;-67
2023/05/15 10:08:28;;;;;;;18.15;13.05;;;;;;;;;;5041315;28;20196;-67
2023/05/15 10:10:57;;;;;;;20.67;12.40;;;;;;;;;;5046418;28;20518;-67
2023/05/15 10:13:23;;;;;;;16.52;11.23;;;;;;;;;;5036045;28;20198;-66
2023/05/15 10:15:51;;;;;;;12.93;10.45;;;;;;;;;;5038475;28;20208;-67
2023/05/15 10:18:20;;;;;;;13.57;10.52;;;;;;;;;;5020214;28;20870;-68
2023/05/15 10:20:46;;;;;;;15.82;10.35;;;;;;;;;;5021988;28;20228;-70
2023/05/15 10:23:14;;;;;;;17.17;10.13;;;;;;;;;;5021287;28;20662;-68
2023/05/15 10:25:54;;;;;;;15.55;12.40;;;;;;;;;;5017416;28;20182;-69
2023/05/15 10:28:21;;;;;;;13.00;10.55;;;;;;;;;;5023376;28;20197;-70
2023/05/15 10:30:47;;;;;;;12.68;9.75;;;;;;;;;;5023125;28;20191;-67
2023/05/15 10:33:13;;;;;;;13.80;10.00;;;;;;;;;;5020706;28;20200;-68
2023/05/15 10:35:39;;;;;;;14.48;10.23;;;;;;;;;;5040600;28;20198;-67
2023/05/15 10:38:05;;;;;;;10.55;9.02;;;;;;;;;;5024322;28;20245;-68
2023/05/15 10:40:34;;;;;;;15.70;10.27;;;;;;;;;;5030005;28;20201;-67
2023/05/15 10:43:00;;;;;;;14.30;10.38;;;;;;;;;;5030087;28;20182;-67
2023/05/15 10:45:26;;;;;;;11.68;9.70;;;;;;;;;;5022280;28;20213;-68
2023/05/15 10:47:52;;;;;;;16.88;10.25;;;;;;;;;;5022308;28;20465;-67
2023/05/15 10:50:18;;;;;;;15.88;11.60;;;;;;;;;;5032747;28;20268;-67
2023/05/15 10:52:43;;;;;;;16.75;10.68;;;;;;;;;;5016392;28;20483;-69
2023/05/15 10:55:15;;;;;;;14.73;12.40;;;;;;;;;;5024100;28;20269;-68
2023/05/15 10:57:43;;;;;;;18.15;12.25;;;;;;;;;;5036283;28;20186;-68
2023/05/15 11:00:32;;;;;;;18.40;12.30;;;;;;;;;;5027182;28;20183;-67
2023/05/15 11:02:58;;;;;;;15.60;12.80;;;;;;;;;;5023232;28;20194;-70
2023/05/15 11:05:24;;;;;;;14.82;12.10;;;;;;;;;;5027184;28;20261;-68
2023/05/15 11:08:16;;;;;;;16.00;12.10;;;;;;;;;;5024893;28;20209;-67
2023/05/15 11:10:42;;;;;;;14.50;12.15;;;;;;;;;;5041509;28;20236;-68
2023/05/15 11:13:07;;;;;;;19.33;13.07;;;;;;;;;;5039006;28;20652;-68
2023/05/15 11:15:43;;;;;;;16.33;12.50;;;;;;;;;;5040467;28;20243;-68
2023/05/15 11:18:08;;;;;;;16.77;13.15;;;;;;;;;;5028178;28;20209;-70
2023/05/15 11:20:41;;;;;;;16.38;11.85;;;;;;;;;;5032371;28;20266;-67
2023/05/15 11:23:06;;;;;;;16.52;13.43;;;;;;;;;;5033799;28;20228;-67
2023/05/15 11:25:34;;;;;;;18.35;13.52;;;;;;;;;;5045549;28;20216;-67
2023/05/15 11:28:01;;;;;;;17.88;13.43;;;;;;;;;;5028421;28;20189;-67
2023/05/15 11:30:40;;;;;;;18.88;14.35;;;;;;;;;;5024297;28;20334;-67
2023/05/15 11:33:09;;;;;;;14.93;12.90;;;;;;;;;;5019617;28;20193;-67
2023/05/15 11:35:41;;;;;;;15.25;11.82;;;;;;;;;;5035476;28;20194;-68
2023/05/15 11:38:15;;;;;;;15.32;13.80;;;;;;;;;;5017564;28;20276;-69
2023/05/15 11:40:46;;;;;;;17.50;15.25;;;;;;;;;;5044641;28;20193;-68
2023/05/15 11:43:23;;;;;;;22.70;14.77;;;;;;;;;;5039438;28;20222;-68
2023/05/15 11:46:07;;;;;;;16.05;14.30;;;;;;;;;;5014624;28;20679;-67
2023/05/15 11:48:42;;;;;;;18.27;15.38;;;;;;;;;;5026555;28;20256;-67
2023/05/15 11:51:23;;;;;;;19.75;16.27;;;;;;;;;;5026461;28;20186;-69
2023/05/15 11:53:50;;;;;;;19.88;17.33;;;;;;;;;;5021914;28;20198;-68
2023/05/15 11:56:24;;;;;;;22.17;16.80;;;;;;;;;;5023321;28;20673;-68
2023/05/15 11:58:51;;;;;;;18.38;16.10;;;;;;;;;;5018073;28;20221;-69
2023/05/15 12:01:17;;;;;;;21.27;15.68;;;;;;;;;;5023067;28;20490;-69
2023/05/15 12:03:42;;;;;;;22.23;16.17;;;;;;;;;;5027114;28;20196;-67
2023/05/15 12:06:09;;;;;;;16.23;13.82;;;;;;;;;;5029749;28;20252;-68
2023/05/15 12:08:38;;;;;;;16.33;13.73;;;;;;;;;;5031320;28;20174;-67
2023/05/15 12:11:04;;;;;;;13.77;12.13;;;;;;;;;;5044894;28;20189;-67
2023/05/15 12:13:31;;;;;;;16.92;14.10;;;;;;;;;;5041995;28;20194;-68
2023/05/15 12:15:57;;;;;;;19.30;15.18;;;;;;;;;;5039386;28;20305;-68
2023/05/15 12:18:22;;;;;;;20.88;14.70;;;;;;;;;;5027027;28;20225;-69
2023/05/15 12:20:51;;;;;;;15.63;13.25;;;;;;;;;;5028264;28;20612;-66
2023/05/15 12:23:16;;;;;;;18.95;13.27;;;;;;;;;;5025559;28;20190;-69
2023/05/15 12:25:45;;;;;;;12.38;11.07;;;;;;;;;;5027583;28;20185;-69
2023/05/15 12:28:11;;;;;;;12.68;11.15;;;;;;;;;;5035754;28;20184;-67
2023/05/15 12:30:36;;;;;;;14.93;11.27;;;;;;;;;;5025093;28;20684;-67
2023/05/15 12:33:04;;;;;;;14.68;9.57;;;;;;;;;;5032192;28;20216;-67
2023/05/15 12:35:33;;;;;;;10.38;9.38;;;;;;;;;;5021181;28;20241;-68
2023/05/15 12:37:59;;;;;;;11.40;9.82;;;;;;;;;;5027303;28;20238;-68
2023/05/15 12:40:26;;;;;;;10.32;8.98;;;;;;;;;;5019063;28;20190;-67
2023/05/15 12:42:53;;;;;;;9.13;7.72;;;;;;;;;;5023380;28;20664;-67
2023/05/15 12:45:20;;;;;;;7.30;5.40;;;;;;;;;;5018381;28;20285;-70
2023/05/15 12:47:48;;;;;;;7.97;5.93;;;;;;;;;;5013951;28;20187;-69
2023/05/15 12:50:17;;;;;;;7.32;5.70;;;;;;;;;;5026985;28;20221;-68
2023/05/15 12:53:02;;;;;;;10.55;6.45;;;;;;;;;;5024900;28;20288;-69
2023/05/15 12:55:33;;;;;;;11.10;7.03;;;;;;;;;;5026228;28;20194;-71
2023/05/15 12:58:01;;;;;;;8.43;6.72;;;;;;;;;;5016990;28;20238;-70
2023/05/15 13:00:28;;;;;;;7.75;5.68;;;;;;;;;;5023569;28;20750;-69
2023/05/15 13:02:55;;;;;;;6.75;5.40;;;;;;;;;;5024282;28;20189;-69
2023/05/15 13:05:24;;;;;;;6.35;5.57;;;;;;;;;;5023400;28;20193;-68
2023/05/15 13:07:52;;;;;;;6.20;4.68;;;;;;;;;;5028060;28;20189;-67
2023/05/15 13:10:22;;;;;;;8.38;5.03;;;;;;;;;;5028687;28;20183;-69
2023/05/15 13:12:49;;;;;;;7.90;4.97;;;;;;;;;;5040569;28;20599;-68
2023/05/15 13:15:43;;;;;;;4.95;4.40;;;;;;;;;;5029263;28;20255;-70
2023/05/15 13:18:10;;;;;;;6.75;4.68;;;;;;;;;;5016358;28;20225;-70
2023/05/15 13:20:47;;;;;;;4.97;4.47;;;;;;;;;;5034141;28;20213;-70
2023/05/15 13:23:19;;;;;;;9.05;5.63;;;;;;;;;;5030071;28;20203;-70
2023/05/15 13:25:44;;;;;;;6.43;4.40;;;;;;;;;;5036009;28;20193;-67
2023/05/15 13:28:10;;;;;;;6.65;5.03;;;;;;;;;;5026021;28;20274;-70
2023/05/15 13:30:40;;;;;;;7.95;4.60;;;;;;;;;;5031669;28;20188;-68
2023/05/15 13:33:06;;;;;;;5.60;4.40;;;;;;;;;;5024790;28;20261;-69
2023/05/15 13:35:31;;;;;;;5.90;5.22;;;;;;;;;;5031779;28;20217;-68
2023/05/15 13:37:57;;;;;;;5.28;4.50;;;;;;;;;;5011932;28;20726;-69
2023/05/15 13:40:22;;;;;;;7.82;5.45;;;;;;;;;;5028610;28;20206;-70
2023/05/15 13:42:48;;;;;;;6.05;5.50;;;;;;;;;;5016664;28;20186;-71
2023/05/15 13:45:15;;;;;;;6.15;4.85;;;;;;;;;;5040499;28;20185;-68
2023/05/15 13:47:41;;;;;;;6.55;5.53;;;;;;;;;;5028738;28;20186;-71
2023/05/15 13:50:08;;;;;;;5.90;4.70;;;;;;;;;;5022899;28;20198;-70
2023/05/15 13:52:34;;;;;;;8.90;4.45;;;;;;;;;;5041806;28;20651;-70
2023/05/15 13:54:59;;;;;;;5.85;4.60;;;;;;;;;;5023384;28;20186;-70
2023/05/15 13:57:25;;;;;;;5.43;4.30;;;;;;;;;;5022740;28;20594;-68
2023/05/15 13:59:51;;;;;;;6.95;4.97;;;;;;;;;;5026375;28;20224;-68
2023/05/15 14:02:16;;;;;;;5.03;4.50;;;;;;;;;;5026109;28;20309;-68
2023/05/15 14:04:42;;;;;;;6.40;5.15;;;;;;;;;;5024332;28;20195;-68
2023/05/15 14:07:07;;;;;;;6.70;5.55;;;;;;;;;;5037143;28;20280;-69
2023/05/15 14:09:32;;;;;;;7.78;5.90;;;;;;;;;;5034757;28;20570;-68
2023/05/15 14:11:58;;;;;;;6.22;5.55;;;;;;;;;;5025128;28;20208;-67
2023/05/15 14:14:23;;;;;;;7.95;6.53;;;;;;;;;;5020733;28;20214;-67
2023/05/15 14:16:49;;;;;;;8.80;7.45;;;;;;;;;;5029047;28;20668;-68
2023/05/15 14:19:14;;;;;;;7.88;7.03;;;;;;;;;;5018321;28;20259;-67